Time;durP1;ratioP1;P1;durP2;ratioP2;P2;SDS_P1;SDS_P2;PMS_P1;PMS_P2;Temp;Humidity;BMP_temperature;BMP_pressure;BME280_temperature;BME280_humidity;BME280_pressure;Samples;Min_cycle;Max_cycle;Signal;HPM_P1;HPM_P2
2022/01/03 00:02:24;;;;;;;21.10;19.90;;;12.50;72.70;;;;;;5032927;28;20968;-73
2022/01/03 00:04:53;;;;;;;20.73;19.63;;;12.60;72.50;;;;;;5032547;28;20490;-73
2022/01/03 00:07:20;;;;;;;20.97;19.73;;;12.60;72.10;;;;;;5032948;28;20479;-73
2022/01/03 00:09:47;;;;;;;21.23;19.83;;;12.60;71.80;;;;;;5032613;28;20476;-73
2022/01/03 00:12:14;;;;;;;21.60;20.40;;;12.70;71.30;;;;;;5032858;28;20448;-73
2022/01/03 00:14:42;;;;;;;20.83;19.70;;;12.70;71.10;;;;;;5032677;28;20543;-73
2022/01/03 00:17:09;;;;;;;21.13;19.87;;;12.80;70.60;;;;;;5032737;28;20466;-73
2022/01/03 00:19:36;;;;;;;21.17;19.87;;;12.80;70.20;;;;;;5032526;28;20570;-73
2022/01/03 00:22:10;;;;;;;20.93;19.77;;;12.90;69.90;;;;;;5032702;28;20539;-73
2022/01/03 00:24:39;;;;;;;20.70;19.40;;;13.00;69.70;;;;;;5032614;28;20462;-73
2022/01/03 00:27:11;;;;;;;20.80;19.37;;;13.00;69.50;;;;;;5032528;28;20921;-73
2022/01/03 00:29:44;;;;;;;20.90;19.80;;;13.00;69.40;;;;;;5032415;28;20478;-73
2022/01/03 00:32:12;;;;;;;22.27;20.20;;;13.00;69.40;;;;;;5032681;28;20440;-73
2022/01/03 00:34:39;;;;;;;20.93;19.77;;;13.00;69.30;;;;;;5032473;28;20538;-73
2022/01/03 00:37:09;;;;;;;21.17;19.77;;;13.10;69.10;;;;;;5032662;28;20546;-73
2022/01/03 00:39:40;;;;;;;21.13;20.03;;;13.10;69.00;;;;;;5032529;28;20468;-73
2022/01/03 00:42:07;;;;;;;21.10;19.90;;;13.10;68.80;;;;;;5032513;28;20566;-73
2022/01/03 00:44:34;;;;;;;21.13;19.93;;;13.10;68.90;;;;;;5032180;28;20463;-73
2022/01/03 00:47:01;;;;;;;21.73;20.43;;;13.10;69.00;;;;;;5032575;28;20547;-73
2022/01/03 00:49:28;;;;;;;21.70;20.40;;;13.10;69.10;;;;;;5032165;28;20471;-73
2022/01/03 00:51:55;;;;;;;20.80;19.70;;;13.10;68.70;;;;;;5032112;28;20444;-73
2022/01/03 00:54:23;;;;;;;21.60;20.20;;;13.10;68.70;;;;;;5032288;28;20530;-73
2022/01/03 00:56:56;;;;;;;21.10;19.90;;;13.20;68.30;;;;;;5032312;28;20534;-73
2022/01/03 00:59:31;;;;;;;21.60;20.30;;;13.20;68.40;;;;;;5032144;28;20483;-73
2022/01/03 01:02:01;;;;;;;21.70;20.40;;;13.20;68.40;;;;;;5040309;22;20555;-73
2022/01/03 01:04:28;;;;;;;22.13;21.03;;;13.20;68.40;;;;;;5032217;28;20497;-73
2022/01/03 01:06:57;;;;;;;22.10;20.70;;;13.20;68.60;;;;;;5032069;28;20462;-73
2022/01/03 01:09:26;;;;;;;21.70;20.40;;;13.10;68.70;;;;;;5032099;28;20503;-73
2022/01/03 01:11:58;;;;;;;21.10;20.00;;;13.10;68.80;;;;;;5032209;28;20446;-73
2022/01/03 01:14:26;;;;;;;21.30;20.10;;;13.10;68.70;;;;;;5032272;28;20518;-73
2022/01/03 01:16:53;;;;;;;20.80;19.70;;;13.10;68.70;;;;;;5034634;28;20452;-73
2022/01/03 01:19:22;;;;;;;20.83;19.73;;;13.10;68.80;;;;;;5035452;28;20551;-73
2022/01/03 01:21:49;;;;;;;21.80;20.60;;;13.00;68.70;;;;;;5035909;28;20489;-73
2022/01/03 01:24:17;;;;;;;21.63;20.33;;;13.00;68.90;;;;;;5035911;28;20451;-73
2022/01/03 01:29:29;;;;;;;21.70;20.40;;;13.00;68.70;;;;;;5014556;28;20470;-73
2022/01/03 01:32:02;;;;;;;22.53;21.07;;;13.00;68.90;;;;;;5035796;28;20448;-73
2022/01/03 01:34:30;;;;;;;21.67;20.27;;;13.00;68.80;;;;;;5035712;28;20543;-72
2022/01/03 01:36:59;;;;;;;22.07;20.80;;;13.00;69.00;;;;;;5035679;28;20936;-72
2022/01/03 01:39:27;;;;;;;22.63;21.00;;;13.00;69.20;;;;;;5035440;28;20478;-72
2022/01/03 01:41:59;;;;;;;21.97;20.50;;;12.90;69.10;;;;;;5035642;28;20562;-72
2022/01/03 01:44:27;;;;;;;21.80;20.50;;;13.00;69.30;;;;;;5035483;28;20467;-73
2022/01/03 01:46:56;;;;;;;22.07;20.77;;;12.90;69.30;;;;;;5035329;28;20486;-72
2022/01/03 01:49:25;;;;;;;21.73;20.53;;;12.90;69.50;;;;;;5035280;28;20475;-72
2022/01/03 01:51:59;;;;;;;22.03;20.83;;;12.90;69.60;;;;;;5035265;28;20459;-72
2022/01/03 01:54:31;;;;;;;21.53;20.30;;;12.90;69.60;;;;;;5035465;28;20455;-72
2022/01/03 01:57:17;;;;;;;23.03;20.70;;;12.90;69.70;;;;;;5035584;28;20454;-72
2022/01/03 01:59:53;;;;;;;21.50;20.27;;;12.90;69.80;;;;;;5035322;28;20472;-72
2022/01/03 02:02:30;;;;;;;21.90;20.43;;;12.80;70.00;;;;;;5035386;28;20481;-72
2022/01/03 02:05:18;;;;;;;21.30;20.00;;;12.80;70.20;;;;;;5035247;28;20462;-72
2022/01/03 02:08:05;;;;;;;21.50;20.30;;;12.80;70.40;;;;;;5035145;28;20476;-72
2022/01/03 02:10:38;;;;;;;21.80;20.70;;;12.80;70.40;;;;;;5034948;28;20906;-72
2022/01/03 02:13:06;;;;;;;21.10;20.00;;;12.80;70.60;;;;;;5035171;28;20474;-72
2022/01/03 02:15:34;;;;;;;20.70;19.60;;;12.80;70.40;;;;;;5034848;28;20547;-72
2022/01/03 02:18:01;;;;;;;21.67;20.37;;;12.80;70.90;;;;;;5034916;28;20510;-72
2022/01/03 02:20:31;;;;;;;21.53;20.33;;;12.80;71.20;;;;;;5034693;28;20906;-72
2022/01/03 02:22:58;;;;;;;21.67;20.43;;;12.80;71.20;;;;;;5035015;28;20460;-72
2022/01/03 02:25:26;;;;;;;21.70;20.30;;;12.80;71.20;;;;;;5034810;28;20458;-72
2022/01/03 02:27:54;;;;;;;21.10;19.90;;;12.80;71.30;;;;;;5034628;28;20477;-72
2022/01/03 02:30:23;;;;;;;21.30;20.10;;;12.80;71.60;;;;;;5034565;28;20472;-72
2022/01/03 02:32:51;;;;;;;21.13;19.93;;;12.80;71.60;;;;;;5034891;28;20458;-72
2022/01/03 02:35:18;;;;;;;21.00;19.70;;;12.80;71.70;;;;;;5034653;28;20526;-72
2022/01/03 02:37:48;;;;;;;21.37;20.17;;;12.80;71.50;;;;;;5034655;28;20454;-72
2022/01/03 02:40:15;;;;;;;21.30;20.10;;;12.70;71.80;;;;;;5034391;28;20468;-72
2022/01/03 02:42:43;;;;;;;20.63;19.53;;;12.60;72.10;;;;;;5034303;28;20482;-72
2022/01/03 02:45:12;;;;;;;21.80;20.50;;;12.70;71.80;;;;;;5034368;28;20897;-72
2022/01/03 02:47:40;;;;;;;21.77;20.50;;;12.60;71.80;;;;;;5034488;28;20829;-74
2022/01/03 02:50:09;;;;;;;22.10;20.73;;;12.60;72.00;;;;;;5034056;28;20478;-73
2022/01/03 02:52:36;;;;;;;21.80;20.60;;;12.70;71.90;;;;;;5034386;28;20448;-73
2022/01/03 02:55:07;;;;;;;21.63;20.40;;;12.70;71.70;;;;;;5034318;28;20877;-73
2022/01/03 02:57:38;;;;;;;21.70;20.50;;;12.70;71.70;;;;;;5034291;28;20458;-74
2022/01/03 03:00:07;;;;;;;22.40;20.90;;;12.60;71.90;;;;;;5033977;28;20472;-72
2022/01/03 03:02:35;;;;;;;21.07;19.90;;;12.60;72.10;;;;;;5034049;28;20478;-72
2022/01/03 03:05:04;;;;;;;21.20;20.00;;;12.60;72.20;;;;;;5034096;28;21003;-72
2022/01/03 03:07:32;;;;;;;21.80;20.07;;;12.60;72.10;;;;;;5034025;28;20455;-73
2022/01/03 03:10:00;;;;;;;22.10;20.40;;;12.60;72.00;;;;;;5033671;28;20478;-72
2022/01/03 03:12:29;;;;;;;21.00;19.90;;;12.60;72.00;;;;;;5033964;28;20474;-72
2022/01/03 03:14:55;;;;;;;21.20;20.00;;;12.60;72.10;;;;;;5033987;28;20491;-72
2022/01/03 03:17:23;;;;;;;22.93;21.53;;;12.50;72.40;;;;;;5033793;28;20967;-72
2022/01/03 03:19:52;;;;;;;21.00;19.80;;;12.40;72.40;;;;;;5033537;28;20659;-72
2022/01/03 03:22:19;;;;;;;21.90;20.43;;;12.40;72.30;;;;;;5033630;28;20479;-72
2022/01/03 03:24:46;;;;;;;21.70;20.40;;;12.30;72.50;;;;;;5033621;28;20452;-72
2022/01/03 03:27:13;;;;;;;21.77;20.00;;;12.40;72.40;;;;;;5033595;28;20456;-72
2022/01/03 03:29:47;;;;;;;21.20;19.93;;;12.40;72.10;;;;;;5033454;28;20472;-72
2022/01/03 03:32:14;;;;;;;22.50;21.13;;;12.40;72.00;;;;;;5033369;28;20448;-72
2022/01/03 03:34:41;;;;;;;21.70;20.23;;;12.40;71.80;;;;;;5033425;28;20448;-73
2022/01/03 03:37:09;;;;;;;22.53;21.03;;;12.40;71.80;;;;;;5033367;28;20456;-72
2022/01/03 03:39:36;;;;;;;22.00;20.50;;;12.40;71.90;;;;;;5032653;28;20472;-72
2022/01/03 03:42:05;;;;;;;21.47;20.17;;;12.30;72.30;;;;;;5033353;28;20486;-72
2022/01/03 03:44:32;;;;;;;21.97;20.67;;;12.20;72.20;;;;;;5033256;28;20459;-72
2022/01/03 03:47:01;;;;;;;21.87;20.47;;;12.30;71.80;;;;;;5033196;28;20482;-72
2022/01/03 03:49:28;;;;;;;21.77;20.37;;;12.30;71.80;;;;;;5032951;28;20476;-72
2022/01/03 03:51:58;;;;;;;21.87;20.43;;;12.30;71.60;;;;;;5033260;28;20540;-72
2022/01/03 03:54:25;;;;;;;22.13;20.90;;;12.20;71.70;;;;;;5033201;28;20452;-75
2022/01/03 03:56:52;;;;;;;22.00;20.70;;;12.20;71.90;;;;;;5033042;28;20458;-72
2022/01/03 03:59:19;;;;;;;21.00;19.70;;;12.20;71.50;;;;;;5032923;28;20474;-72
2022/01/03 04:01:45;;;;;;;21.90;20.60;;;12.10;71.60;;;;;;5032975;28;20475;-72
2022/01/03 04:04:14;;;;;;;21.70;20.50;;;12.10;70.90;;;;;;5032909;28;20538;-72
2022/01/03 04:06:41;;;;;;;21.87;20.43;;;12.10;70.80;;;;;;5033066;28;20531;-72
2022/01/03 04:09:08;;;;;;;21.97;20.57;;;12.10;70.90;;;;;;5032880;28;20503;-72
2022/01/03 04:11:35;;;;;;;22.90;21.47;;;12.10;70.70;;;;;;5032995;28;20456;-72
2022/01/03 04:14:02;;;;;;;21.80;20.50;;;12.10;70.50;;;;;;5032832;28;20452;-72
2022/01/03 04:16:29;;;;;;;21.77;20.47;;;12.10;70.70;;;;;;5032663;28;20543;-72
2022/01/03 04:18:56;;;;;;;22.70;21.37;;;12.20;70.50;;;;;;5032583;28;20478;-72
2022/01/03 04:21:25;;;;;;;22.07;20.80;;;12.10;70.30;;;;;;5032545;28;20575;-72
2022/01/03 04:26:20;;;;;;;23.67;22.13;;;12.10;70.30;;;;;;5029272;28;20984;-72
2022/01/03 04:28:47;;;;;;;24.97;23.43;;;12.00;70.80;;;;;;5032673;28;20471;-72
2022/01/03 04:31:14;;;;;;;22.60;21.23;;;12.10;70.70;;;;;;5032496;28;20447;-72
2022/01/03 04:33:41;;;;;;;24.37;22.90;;;12.00;71.00;;;;;;5032698;28;20456;-72
2022/01/03 04:36:09;;;;;;;22.50;20.93;;;12.00;70.90;;;;;;5032730;28;20440;-72
2022/01/03 04:38:37;;;;;;;24.70;23.30;;;12.10;71.00;;;;;;5032368;28;20448;-72
2022/01/03 04:41:05;;;;;;;22.10;20.83;;;12.10;70.80;;;;;;5032544;28;20443;-72
2022/01/03 04:43:33;;;;;;;24.40;22.70;;;12.00;71.10;;;;;;5032498;28;20798;-72
2022/01/03 04:46:00;;;;;;;24.30;22.60;;;12.10;71.50;;;;;;5032312;28;20468;-72
2022/01/03 04:48:27;;;;;;;25.03;23.43;;;12.10;71.80;;;;;;5032466;28;20817;-72
2022/01/03 04:50:54;;;;;;;22.63;21.20;;;12.10;72.30;;;;;;5032957;28;20812;-72
2022/01/03 04:53:25;;;;;;;23.60;22.30;;;12.10;72.60;;;;;;5036641;28;20535;-72
2022/01/03 04:55:54;;;;;;;21.43;20.30;;;12.00;72.80;;;;;;5036438;28;20483;-72
2022/01/03 04:58:21;;;;;;;22.33;21.03;;;12.10;73.20;;;;;;5036439;28;20487;-72
2022/01/03 05:00:49;;;;;;;25.30;23.60;;;12.10;73.60;;;;;;5036134;28;20558;-72
2022/01/03 05:03:16;;;;;;;25.07;23.60;;;12.00;73.60;;;;;;5036381;28;20984;-72
2022/01/03 05:05:43;;;;;;;24.20;22.70;;;11.90;74.10;;;;;;5036394;28;20459;-72
2022/01/03 05:08:10;;;;;;;24.00;22.47;;;11.90;75.20;;;;;;5036438;28;20459;-72
2022/01/03 05:10:37;;;;;;;23.47;21.87;;;11.90;75.30;;;;;;5035986;28;20486;-72
2022/01/03 05:13:05;;;;;;;23.47;22.07;;;11.80;75.90;;;;;;5036088;28;20448;-72
2022/01/03 05:15:32;;;;;;;23.67;22.03;;;11.80;76.70;;;;;;5036133;28;20451;-72
2022/01/03 05:17:59;;;;;;;24.20;22.43;;;11.50;78.80;;;;;;5036183;28;20454;-72
2022/01/03 05:20:26;;;;;;;23.67;22.17;;;11.40;79.70;;;;;;5035828;28;20467;-72
2022/01/03 05:22:53;;;;;;;23.77;22.20;;;11.40;80.30;;;;;;5036132;28;20479;-72
2022/01/03 05:25:19;;;;;;;23.83;22.43;;;11.40;80.80;;;;;;5035971;28;20460;-72
2022/01/03 05:27:47;;;;;;;23.57;21.77;;;11.40;81.60;;;;;;5036087;28;20466;-72
2022/01/03 05:30:16;;;;;;;23.13;21.63;;;11.30;82.00;;;;;;5036006;28;20502;-72
2022/01/03 05:32:44;;;;;;;23.80;22.20;;;11.30;82.00;;;;;;5036063;28;20498;-72
2022/01/03 05:35:11;;;;;;;24.53;22.57;;;11.40;82.00;;;;;;5035639;28;20459;-73
2022/01/03 05:37:38;;;;;;;22.13;20.83;;;11.40;82.10;;;;;;5035875;28;20448;-73
2022/01/03 05:40:06;;;;;;;23.80;22.20;;;11.40;82.00;;;;;;5035434;28;20475;-73
2022/01/03 05:42:33;;;;;;;22.93;21.40;;;11.40;82.10;;;;;;5035628;28;20789;-73
2022/01/03 05:44:59;;;;;;;24.87;22.87;;;11.30;82.90;;;;;;5035316;28;20473;-73
2022/01/03 05:47:28;;;;;;;22.93;21.53;;;11.40;82.40;;;;;;5035669;28;20473;-73
2022/01/03 05:49:55;;;;;;;23.20;22.00;;;11.30;82.60;;;;;;5035203;28;20957;-73
2022/01/03 05:52:22;;;;;;;24.30;22.90;;;11.30;82.80;;;;;;5035589;28;20444;-73
2022/01/03 05:54:49;;;;;;;22.27;20.80;;;11.20;83.00;;;;;;5035403;28;20470;-73
2022/01/03 05:57:16;;;;;;;23.10;21.60;;;11.20;83.50;;;;;;5035274;28;20492;-73
2022/01/03 05:59:43;;;;;;;22.77;21.43;;;11.30;83.50;;;;;;5035070;28;20522;-73
2022/01/03 06:02:10;;;;;;;22.07;20.60;;;11.20;84.30;;;;;;5034752;28;20483;-73
2022/01/03 06:04:53;;;;;;;22.43;20.83;;;11.20;84.50;;;;;;5035117;28;20861;-73
2022/01/03 06:07:20;;;;;;;21.77;20.37;;;11.20;84.60;;;;;;5035321;28;20448;-73
2022/01/03 06:09:48;;;;;;;21.30;19.80;;;11.10;84.50;;;;;;5034949;28;20476;-73
2022/01/03 06:12:17;;;;;;;21.60;20.20;;;11.10;84.90;;;;;;5035218;28;21029;-73
2022/01/03 06:14:44;;;;;;;22.27;20.87;;;11.10;85.40;;;;;;5035172;28;20455;-72
2022/01/03 06:17:12;;;;;;;23.20;21.63;;;10.90;86.40;;;;;;5035062;28;20539;-73
2022/01/03 06:19:41;;;;;;;22.97;20.93;;;10.80;87.10;;;;;;5034672;28;20563;-73
2022/01/03 06:22:09;;;;;;;23.17;21.63;;;10.80;87.20;;;;;;5035008;28;21071;-73
2022/01/03 06:24:37;;;;;;;23.20;21.80;;;10.70;87.60;;;;;;5034782;28;20463;-73
2022/01/03 06:27:04;;;;;;;23.30;21.60;;;10.70;88.00;;;;;;5034857;28;20486;-73
2022/01/03 06:29:31;;;;;;;21.33;19.83;;;10.70;88.30;;;;;;5034470;28;20474;-73
2022/01/03 06:31:58;;;;;;;20.40;18.97;;;10.80;87.80;;;;;;5034687;28;20450;-73
2022/01/03 06:34:26;;;;;;;20.73;19.33;;;10.80;87.80;;;;;;5034690;28;20486;-72
2022/01/03 06:36:54;;;;;;;20.77;19.17;;;10.80;87.70;;;;;;5034649;28;20480;-73
2022/01/03 06:39:21;;;;;;;20.47;19.33;;;10.70;87.70;;;;;;5034283;28;20559;-72
2022/01/03 06:41:48;;;;;;;20.07;18.87;;;10.80;88.60;;;;;;5034769;28;20865;-73
2022/01/03 06:44:15;;;;;;;20.93;19.43;;;10.80;88.40;;;;;;5034554;28;20459;-73
2022/01/03 06:46:42;;;;;;;21.97;20.27;;;10.80;88.10;;;;;;5034111;28;20462;-73
2022/01/03 06:49:09;;;;;;;20.83;19.57;;;10.80;87.90;;;;;;5034296;28;20484;-73
2022/01/03 06:51:36;;;;;;;21.53;20.10;;;10.80;87.80;;;;;;5034151;28;20543;-73
2022/01/03 06:54:06;;;;;;;21.13;19.70;;;10.90;87.80;;;;;;5034441;28;20578;-73
2022/01/03 06:56:33;;;;;;;20.53;19.20;;;10.80;88.40;;;;;;5034369;28;20539;-73
2022/01/03 06:59:00;;;;;;;22.17;20.67;;;10.80;88.30;;;;;;5034078;28;20551;-73
2022/01/03 07:01:29;;;;;;;22.17;20.23;;;10.80;88.40;;;;;;5034054;28;20526;-73
2022/01/03 07:03:56;;;;;;;23.03;21.43;;;10.80;88.30;;;;;;5034197;28;20574;-72
2022/01/03 07:06:23;;;;;;;23.17;21.77;;;10.80;88.50;;;;;;5034196;28;20539;-73
2022/01/03 07:08:50;;;;;;;21.40;19.70;;;10.90;88.10;;;;;;5033887;28;20507;-73
2022/01/03 07:11:18;;;;;;;22.43;21.00;;;10.90;88.40;;;;;;5034020;28;20538;-73
2022/01/03 07:13:48;;;;;;;23.83;22.20;;;10.80;88.60;;;;;;5033048;28;20523;-73
2022/01/03 07:19:00;;;;;;;23.60;21.80;;;10.70;89.00;;;;;;5033934;28;20447;-73
2022/01/03 07:21:29;;;;;;;24.20;22.30;;;10.60;89.90;;;;;;5033721;28;20447;-73
2022/01/03 07:23:56;;;;;;;21.67;20.47;;;10.60;89.90;;;;;;5033403;28;20503;-73
2022/01/03 07:26:26;;;;;;;21.63;20.20;;;10.50;91.90;;;;;;5033712;28;20543;-73
2022/01/03 07:28:53;;;;;;;21.63;19.77;;;10.50;92.00;;;;;;5033430;28;20472;-73
2022/01/03 07:31:21;;;;;;;21.80;20.40;;;10.50;91.90;;;;;;5033428;28;20538;-73
2022/01/03 07:33:48;;;;;;;20.70;19.40;;;10.50;91.80;;;;;;5033504;28;20452;-73
2022/01/03 07:36:16;;;;;;;18.20;16.90;;;10.50;91.50;;;;;;5033538;28;20533;-72
2022/01/03 07:38:46;;;;;;;21.77;20.27;;;10.40;91.50;;;;;;5033420;28;20538;-73
2022/01/03 07:41:14;;;;;;;19.97;18.43;;;10.40;92.50;;;;;;5033200;28;20949;-73
2022/01/03 07:43:43;;;;;;;18.83;17.60;;;10.50;92.30;;;;;;5033362;28;20480;-73
2022/01/03 07:46:10;;;;;;;21.07;19.67;;;10.50;91.60;;;;;;5033003;28;20811;-73
2022/01/03 07:48:37;;;;;;;20.53;19.10;;;10.50;91.80;;;;;;5033306;28;20487;-73
2022/01/03 07:51:04;;;;;;;21.47;20.17;;;10.50;91.30;;;;;;5033003;28;20562;-73
2022/01/03 07:53:31;;;;;;;21.07;19.50;;;10.50;90.80;;;;;;5033115;28;20534;-73
2022/01/03 07:55:59;;;;;;;21.03;19.50;;;10.40;91.20;;;;;;5033062;28;20458;-72
2022/01/03 07:58:30;;;;;;;22.53;20.40;;;10.30;92.00;;;;;;5033082;28;20547;-72
2022/01/03 08:01:07;;;;;;;22.37;20.17;;;10.30;92.20;;;;;;5033070;28;20459;-73
2022/01/03 08:03:34;;;;;;;20.00;18.60;;;10.30;92.40;;;;;;5032887;28;20486;-73
2022/01/03 08:06:01;;;;;;;22.40;20.90;;;10.30;92.70;;;;;;5033105;28;20456;-73
2022/01/03 08:08:28;;;;;;;20.77;18.90;;;10.30;93.00;;;;;;5032866;28;20452;-73
2022/01/03 08:10:55;;;;;;;19.17;18.07;;;10.40;92.90;;;;;;5033007;28;20873;-72
2022/01/03 08:13:22;;;;;;;16.40;15.50;;;10.40;92.70;;;;;;5033011;28;20444;-72
2022/01/03 08:15:49;;;;;;;21.70;20.13;;;10.40;93.00;;;;;;5033010;28;20952;-72
2022/01/03 08:18:17;;;;;;;21.33;19.90;;;10.50;92.80;;;;;;5032929;28;20459;-72
2022/01/03 08:20:44;;;;;;;20.40;19.30;;;10.40;91.90;;;;;;5032710;28;20478;-72
2022/01/03 08:23:11;;;;;;;22.30;20.87;;;10.30;92.40;;;;;;5032975;28;20483;-72
2022/01/03 08:25:38;;;;;;;19.63;18.23;;;10.20;92.90;;;;;;5032471;28;20468;-73
2022/01/03 08:28:06;;;;;;;20.23;18.93;;;10.20;93.10;;;;;;5032699;28;20452;-72
2022/01/03 08:30:33;;;;;;;17.43;16.40;;;10.20;93.40;;;;;;5032151;28;20518;-72
2022/01/03 08:33:00;;;;;;;21.67;20.27;;;10.30;92.70;;;;;;5032574;28;20530;-73
2022/01/03 08:35:29;;;;;;;22.13;20.50;;;10.10;93.30;;;;;;5032640;28;20452;-73
2022/01/03 08:37:56;;;;;;;20.80;19.03;;;10.30;93.20;;;;;;5032557;28;21021;-73
2022/01/03 08:40:23;;;;;;;20.47;19.10;;;10.30;93.10;;;;;;5032359;28;20578;-73
2022/01/03 08:42:52;;;;;;;20.77;18.93;;;10.40;92.90;;;;;;5032423;28;20475;-73
2022/01/03 08:45:19;;;;;;;20.17;18.67;;;10.40;92.60;;;;;;5032304;28;20451;-72
2022/01/03 08:47:47;;;;;;;21.67;19.73;;;10.40;92.60;;;;;;5032647;28;20456;-73
2022/01/03 08:50:15;;;;;;;21.73;19.47;;;10.40;93.00;;;;;;5032034;28;20472;-72
2022/01/03 08:52:47;;;;;;;22.43;20.67;;;10.50;92.80;;;;;;5032533;28;20448;-73
2022/01/03 08:55:15;;;;;;;20.90;19.03;;;10.70;92.30;;;;;;5032522;28;20460;-73
2022/01/03 08:57:42;;;;;;;20.40;19.00;;;10.70;92.20;;;;;;5032313;28;20540;-73
2022/01/03 09:00:10;;;;;;;21.30;19.70;;;10.80;92.50;;;;;;5031940;28;20475;-72
2022/01/03 09:02:37;;;;;;;23.40;21.07;;;10.80;91.90;;;;;;5032372;28;20452;-73
2022/01/03 09:05:04;;;;;;;20.80;19.30;;;10.90;91.20;;;;;;5032306;28;20885;-73
2022/01/03 09:07:31;;;;;;;19.93;18.37;;;11.00;90.60;;;;;;5032299;28;20534;-73
2022/01/03 09:09:59;;;;;;;20.97;19.40;;;11.10;90.40;;;;;;5032050;28;20471;-73
2022/01/03 09:12:26;;;;;;;20.37;18.97;;;11.30;90.10;;;;;;5032330;28;20450;-73
2022/01/03 09:14:54;;;;;;;23.13;21.43;;;11.40;89.00;;;;;;5032225;28;20535;-73
2022/01/03 09:17:21;;;;;;;23.20;21.00;;;11.50;88.40;;;;;;5032250;28;20456;-73
2022/01/03 09:19:48;;;;;;;21.93;20.00;;;11.70;87.20;;;;;;5031998;28;20555;-73
2022/01/03 09:22:18;;;;;;;21.53;19.93;;;11.70;86.90;;;;;;5032188;28;20535;-73
2022/01/03 09:24:53;;;;;;;23.53;21.70;;;11.70;86.70;;;;;;5032014;28;20976;-73
2022/01/03 09:30:09;;;;;;;22.10;20.70;;;11.90;85.90;;;;;;5032005;28;20459;-73
2022/01/03 09:32:36;;;;;;;22.33;20.73;;;11.90;84.80;;;;;;5032028;28;20985;-73
2022/01/03 09:35:03;;;;;;;23.93;22.20;;;12.00;84.80;;;;;;5032299;28;20543;-73
2022/01/03 09:37:30;;;;;;;22.73;21.10;;;12.10;84.30;;;;;;5033568;28;20486;-73
2022/01/03 09:39:57;;;;;;;24.43;22.50;;;12.20;83.40;;;;;;5035483;28;20836;-73
2022/01/03 09:42:29;;;;;;;23.27;21.47;;;12.30;82.50;;;;;;5035771;28;20858;-73
2022/01/03 09:45:02;;;;;;;21.43;20.03;;;12.30;80.70;;;;;;5035208;28;20482;-73
2022/01/03 09:47:31;;;;;;;23.10;21.40;;;12.30;78.60;;;;;;5035600;28;20448;-73
2022/01/03 09:49:58;;;;;;;22.90;21.60;;;12.30;78.80;;;;;;5035330;28;20482;-73
2022/01/03 09:52:27;;;;;;;23.87;22.07;;;12.40;78.20;;;;;;5035326;28;20466;-73
2022/01/03 09:54:55;;;;;;;21.77;20.47;;;12.40;76.90;;;;;;5035449;28;20448;-73
2022/01/03 09:57:22;;;;;;;24.23;22.30;;;12.40;76.80;;;;;;5035426;28;20451;-73
2022/01/03 09:59:51;;;;;;;24.30;22.43;;;12.50;76.30;;;;;;5035112;28;20571;-73
2022/01/03 10:02:19;;;;;;;23.27;21.70;;;12.50;76.00;;;;;;5035372;28;20448;-73
2022/01/03 10:04:46;;;;;;;22.17;20.67;;;12.50;76.00;;;;;;5035168;28;21008;-73
2022/01/03 10:07:14;;;;;;;24.43;22.47;;;12.60;75.60;;;;;;5035261;28;20479;-73
2022/01/03 10:09:42;;;;;;;24.23;22.43;;;12.70;75.60;;;;;;5034984;28;20472;-73
2022/01/03 10:12:11;;;;;;;22.87;21.20;;;12.80;75.50;;;;;;5035110;28;20452;-73
2022/01/03 10:14:45;;;;;;;23.03;21.37;;;12.90;74.80;;;;;;5035139;28;20479;-73
2022/01/03 10:17:13;;;;;;;24.10;22.60;;;12.90;74.20;;;;;;5034970;28;20460;-73
2022/01/03 10:19:51;;;;;;;24.03;22.57;;;12.80;74.10;;;;;;5034689;28;20486;-73
2022/01/03 10:22:24;;;;;;;23.40;21.90;;;12.90;73.90;;;;;;5035148;28;20897;-73
2022/01/03 10:24:51;;;;;;;21.63;20.30;;;12.90;75.00;;;;;;5034694;28;20484;-73
2022/01/03 10:27:18;;;;;;;21.93;20.43;;;12.90;74.70;;;;;;5034765;28;20531;-72
2022/01/03 10:29:55;;;;;;;22.33;20.73;;;13.00;74.80;;;;;;5034476;28;20478;-73
2022/01/03 10:32:28;;;;;;;22.87;21.47;;;13.00;74.20;;;;;;5034829;28;20458;-73
2022/01/03 10:34:56;;;;;;;22.20;20.90;;;13.00;74.20;;;;;;5034688;28;20917;-73
2022/01/03 10:37:35;;;;;;;22.00;20.60;;;13.00;73.90;;;;;;5034703;28;20462;-73
2022/01/03 10:40:17;;;;;;;23.47;21.63;;;13.00;73.20;;;;;;5034330;28;20479;-73
2022/01/03 10:42:44;;;;;;;24.47;22.27;;;13.00;73.70;;;;;;5034784;28;20934;-73
2022/01/03 10:45:11;;;;;;;22.60;21.00;;;12.90;73.80;;;;;;5034255;28;21011;-73
2022/01/03 10:47:41;;;;;;;22.30;20.90;;;13.00;73.60;;;;;;5034438;28;20474;-73
2022/01/03 10:50:16;;;;;;;22.67;21.17;;;13.00;73.50;;;;;;5033387;28;20494;-73
2022/01/03 10:52:43;;;;;;;22.23;20.87;;;13.20;73.20;;;;;;5034691;28;20477;-73
2022/01/03 10:55:13;;;;;;;22.27;20.73;;;13.20;73.10;;;;;;5035503;28;20675;-73
2022/01/03 10:57:48;;;;;;;23.17;21.77;;;13.20;73.10;;;;;;5034634;28;20488;-73
2022/01/03 11:00:16;;;;;;;22.03;20.83;;;13.30;72.50;;;;;;5034137;28;20911;-73
2022/01/03 11:03:14;;;;;;;23.50;22.10;;;13.20;72.50;;;;;;5034128;28;20925;-73
2022/01/03 11:05:44;;;;;;;23.70;22.27;;;13.20;72.60;;;;;;5034384;28;20452;-73
2022/01/03 11:10:55;;;;;;;21.97;20.60;;;13.50;72.20;;;;;;5034191;28;20432;-73
2022/01/03 11:13:23;;;;;;;23.03;21.73;;;13.50;71.90;;;;;;5033893;28;20805;-73
2022/01/03 11:15:53;;;;;;;22.70;21.20;;;13.50;71.70;;;;;;5033986;28;20555;-73
2022/01/03 11:18:25;;;;;;;22.50;21.00;;;13.50;71.90;;;;;;5033994;28;20455;-73
2022/01/03 11:21:04;;;;;;;23.30;22.00;;;13.60;71.30;;;;;;5033684;28;20951;-73
2022/01/03 11:23:32;;;;;;;24.20;22.20;;;13.70;71.00;;;;;;5033519;28;20471;-73
2022/01/03 11:26:04;;;;;;;22.10;20.80;;;13.80;70.50;;;;;;5033671;28;20825;-73
2022/01/03 11:28:31;;;;;;;22.53;21.00;;;13.70;70.70;;;;;;5033610;28;20451;-73
2022/01/03 11:31:00;;;;;;;21.63;20.03;;;13.80;70.70;;;;;;5033640;28;20467;-73
2022/01/03 11:33:28;;;;;;;22.63;21.00;;;13.90;70.30;;;;;;5033602;28;20856;-73
2022/01/03 11:35:58;;;;;;;24.40;22.70;;;14.10;69.70;;;;;;5033539;28;20455;-73
2022/01/03 11:38:26;;;;;;;22.40;21.00;;;14.20;69.50;;;;;;5033435;28;20458;-73
2022/01/03 11:40:54;;;;;;;25.00;23.50;;;14.10;69.70;;;;;;5033305;28;20460;-73
2022/01/03 11:43:22;;;;;;;23.47;22.13;;;14.20;69.30;;;;;;5033055;28;20543;-73
2022/01/03 11:45:49;;;;;;;23.13;21.70;;;14.10;68.10;;;;;;5033191;28;20544;-73
2022/01/03 11:48:16;;;;;;;22.23;20.93;;;14.10;68.90;;;;;;5033417;28;20950;-73
2022/01/03 11:50:44;;;;;;;24.00;22.50;;;14.10;68.50;;;;;;5032852;28;20821;-73
2022/01/03 11:53:12;;;;;;;21.77;20.67;;;14.10;68.10;;;;;;5033169;28;20459;-73
2022/01/03 11:55:42;;;;;;;22.57;21.17;;;14.10;68.20;;;;;;5033059;28;20448;-73
2022/01/03 12:03:51;;;;;;;24.87;23.30;;;14.10;66.70;;;;;;5007503;28;20474;-73
2022/01/03 12:06:34;;;;;;;22.47;21.07;;;14.00;66.20;;;;;;5033008;28;20559;-73
2022/01/03 12:09:06;;;;;;;23.17;21.70;;;14.00;65.80;;;;;;5030617;28;20479;-73
2022/01/03 12:11:34;;;;;;;22.83;21.50;;;14.00;65.90;;;;;;5032775;28;20538;-73
2022/01/03 12:14:10;;;;;;;22.27;21.07;;;14.00;64.10;;;;;;5032752;28;20941;-73
2022/01/03 12:16:46;;;;;;;22.57;21.37;;;13.90;64.10;;;;;;5032878;28;20452;-73
2022/01/03 12:19:28;;;;;;;23.50;22.20;;;14.00;63.90;;;;;;5032590;28;20478;-73
2022/01/03 12:22:02;;;;;;;22.07;20.80;;;14.00;64.30;;;;;;5032813;28;20478;-73
2022/01/03 12:25:03;;;;;;;22.27;21.17;;;14.00;64.30;;;;;;5032778;28;20530;-73
2022/01/03 12:27:54;;;;;;;22.40;21.00;;;14.00;64.60;;;;;;5026271;28;20478;-73
2022/01/03 12:30:27;;;;;;;22.87;21.37;;;14.00;64.80;;;;;;5032557;28;20559;-73
2022/01/03 12:33:19;;;;;;;21.77;20.57;;;13.90;65.30;;;;;;5032647;28;20454;-73
2022/01/03 12:35:49;;;;;;;22.10;20.80;;;14.00;65.20;;;;;;5032708;28;20459;-73
2022/01/03 12:38:23;;;;;;;22.00;20.60;;;13.90;64.90;;;;;;5032770;28;20452;-73
2022/01/03 12:40:56;;;;;;;23.57;21.80;;;13.90;65.00;;;;;;5032384;28;20479;-73
2022/01/03 12:43:50;;;;;;;23.40;21.80;;;13.90;65.50;;;;;;5032464;28;20451;-73
2022/01/03 12:46:22;;;;;;;22.60;21.33;;;13.90;65.70;;;;;;5032112;28;20479;-73
2022/01/03 12:48:51;;;;;;;22.30;20.70;;;13.90;65.50;;;;;;5032612;28;20476;-73
2022/01/03 12:51:19;;;;;;;22.40;21.10;;;13.90;65.60;;;;;;5032142;28;20893;-73
2022/01/03 12:53:56;;;;;;;21.30;20.10;;;14.00;65.60;;;;;;5032358;28;20539;-73
2022/01/03 12:56:31;;;;;;;22.00;20.67;;;13.90;65.60;;;;;;5032452;28;20962;-73
2022/01/03 12:59:09;;;;;;;25.30;23.90;;;13.90;66.20;;;;;;5032345;28;20909;-73